Barmouth, United Kingdom
Current Conditions -  °F | °C
As of 9:50 AM on Thursday 18 Dec 2014 (Local Time) from EGOV Reporting Station
Overcast Overcast  
Wind Chill: 54°   Ceiling: 800
Heat Index: 54°   Visibility: 6mi
Dew Point: 52°   Wind: 29mph
Humidity: 94%   Direction: 210°SSW
Pressure: 29.62"   Gusts: NA
Location:  52.72°N, 4.06°W
Report Text: EGOV 180950Z 21025KT 9999 BKN008 OVC030 12/11 Q1003 GRN TEMPO 7000 BR GRN
Loading
Personal Weather Stations






























Interactive Weather Map New forecast layout! Learn more

10-Day Weather Forecast

Advertisements
Track Severe Weather on mobile